KGVE/GVE METAR and TAF weather

Enter ICAO airport designator
Station Type Date Time Source
KGVE METAR 2020/07/08 22:15 UTC NOAA

KGVE 082215Z AUTO 06004KT 10SM CLR 32/19 A2991 RMK AO1 T03190192


Station Type Date Time Source
KGVE Decoded METAR 2020/07/08 22:15 UTC NOAA

Station name not available
Jul 08, 2020 - 06:15 PM EDT / 2020.07.08 2215 UTC
Wind: from the ENE (060 degrees) at 5 MPH (4 KT):0
Visibility: 10 mile(s):0
Sky conditions: clear
Temperature: 89.4 F (31.9 C)
Dew Point: 66.6 F (19.2 C)
Relative Humidity: 47%
Pressure (altimeter): 29.91 in. Hg (1012 hPa)
ob: KGVE 082215Z AUTO 06004KT 10SM CLR 32/19 A2991 RMK AO1 T03190192
cycle: 22

Station Type Date Time Source
KGVE TAF UTC NOAA

Error!

Example: see airport list